sensor_id;sensor_type;location;lat;lon;timestamp;P1;durP1;ratioP1;P2;durP2;ratioP2
26038;SDS011;13815;52.374;4.882;2023-03-11T00:01:57;25.05;;;22.85;;
26038;SDS011;13815;52.374;4.882;2023-03-11T00:04:22;25.30;;;23.00;;
26038;SDS011;13815;52.374;4.882;2023-03-11T00:06:48;26.52;;;24.13;;
26038;SDS011;13815;52.374;4.882;2023-03-11T00:09:13;27.85;;;25.25;;
26038;SDS011;13815;52.374;4.882;2023-03-11T00:11:39;31.48;;;28.55;;
26038;SDS011;13815;52.374;4.882;2023-03-11T00:14:04;31.13;;;27.98;;
26038;SDS011;13815;52.374;4.882;2023-03-11T00:16:29;29.20;;;26.35;;
26038;SDS011;13815;52.374;4.882;2023-03-11T00:18:55;29.95;;;26.95;;
26038;SDS011;13815;52.374;4.882;2023-03-11T00:21:21;32.45;;;29.05;;
26038;SDS011;13815;52.374;4.882;2023-03-11T00:23:46;32.47;;;29.10;;
26038;SDS011;13815;52.374;4.882;2023-03-11T00:26:12;32.40;;;29.00;;
26038;SDS011;13815;52.374;4.882;2023-03-11T00:28:37;32.95;;;29.08;;
26038;SDS011;13815;52.374;4.882;2023-03-11T00:31:03;35.05;;;31.45;;
26038;SDS011;13815;52.374;4.882;2023-03-11T00:33:28;36.15;;;32.35;;
26038;SDS011;13815;52.374;4.882;2023-03-11T00:35:54;35.22;;;30.90;;
26038;SDS011;13815;52.374;4.882;2023-03-11T00:38:19;35.33;;;31.63;;
26038;SDS011;13815;52.374;4.882;2023-03-11T00:40:45;36.72;;;32.83;;
26038;SDS011;13815;52.374;4.882;2023-03-11T00:43:11;38.08;;;33.60;;
26038;SDS011;13815;52.374;4.882;2023-03-11T00:45:37;38.40;;;34.33;;
26038;SDS011;13815;52.374;4.882;2023-03-11T00:48:03;37.10;;;33.20;;
26038;SDS011;13815;52.374;4.882;2023-03-11T00:50:30;37.50;;;33.50;;
26038;SDS011;13815;52.374;4.882;2023-03-11T00:52:57;40.67;;;36.38;;
26038;SDS011;13815;52.374;4.882;2023-03-11T00:55:24;40.45;;;36.15;;
26038;SDS011;13815;52.374;4.882;2023-03-11T00:57:55;40.65;;;36.35;;
26038;SDS011;13815;52.374;4.882;2023-03-11T01:00:22;39.42;;;35.22;;
26038;SDS011;13815;52.374;4.882;2023-03-11T01:02:49;37.25;;;33.28;;
26038;SDS011;13815;52.374;4.882;2023-03-11T01:05:16;40.42;;;36.13;;
26038;SDS011;13815;52.374;4.882;2023-03-11T01:07:43;39.85;;;35.55;;
26038;SDS011;13815;52.374;4.882;2023-03-11T01:10:08;36.80;;;32.88;;
26038;SDS011;13815;52.374;4.882;2023-03-11T01:12:34;38.80;;;34.63;;
26038;SDS011;13815;52.374;4.882;2023-03-11T01:15:00;41.10;;;36.33;;
26038;SDS011;13815;52.374;4.882;2023-03-11T01:17:26;37.90;;;33.85;;
26038;SDS011;13815;52.374;4.882;2023-03-11T01:19:51;38.22;;;34.13;;
26038;SDS011;13815;52.374;4.882;2023-03-11T01:22:16;38.50;;;34.40;;
26038;SDS011;13815;52.374;4.882;2023-03-11T01:24:42;38.63;;;34.50;;
26038;SDS011;13815;52.374;4.882;2023-03-11T01:27:08;39.38;;;35.25;;
26038;SDS011;13815;52.374;4.882;2023-03-11T01:29:33;38.60;;;34.40;;
26038;SDS011;13815;52.374;4.882;2023-03-11T01:31:58;39.83;;;35.65;;
26038;SDS011;13815;52.374;4.882;2023-03-11T01:34:24;35.90;;;32.10;;
26038;SDS011;13815;52.374;4.882;2023-03-11T01:36:49;38.42;;;33.97;;
26038;SDS011;13815;52.374;4.882;2023-03-11T01:39:14;36.70;;;32.90;;
26038;SDS011;13815;52.374;4.882;2023-03-11T01:41:40;35.78;;;32.08;;
26038;SDS011;13815;52.374;4.882;2023-03-11T01:44:05;37.38;;;33.47;;
26038;SDS011;13815;52.374;4.882;2023-03-11T01:49:18;37.17;;;33.28;;
26038;SDS011;13815;52.374;4.882;2023-03-11T01:51:45;38.55;;;34.55;;
26038;SDS011;13815;52.374;4.882;2023-03-11T01:54:15;36.60;;;32.70;;
26038;SDS011;13815;52.374;4.882;2023-03-11T01:56:43;38.20;;;34.20;;
26038;SDS011;13815;52.374;4.882;2023-03-11T01:59:13;38.58;;;34.55;;
26038;SDS011;13815;52.374;4.882;2023-03-11T02:01:42;41.10;;;36.70;;
26038;SDS011;13815;52.374;4.882;2023-03-11T02:04:14;40.88;;;36.53;;
26038;SDS011;13815;52.374;4.882;2023-03-11T02:06:40;41.72;;;35.33;;
26038;SDS011;13815;52.374;4.882;2023-03-11T02:09:05;38.80;;;34.70;;
26038;SDS011;13815;52.374;4.882;2023-03-11T02:11:35;39.03;;;34.92;;
26038;SDS011;13815;52.374;4.882;2023-03-11T02:14:01;37.22;;;33.33;;
26038;SDS011;13815;52.374;4.882;2023-03-11T02:16:29;38.50;;;34.40;;
26038;SDS011;13815;52.374;4.882;2023-03-11T02:18:56;36.05;;;32.33;;
26038;SDS011;13815;52.374;4.882;2023-03-11T02:21:29;36.85;;;33.05;;
26038;SDS011;13815;52.374;4.882;2023-03-11T02:27:00;36.33;;;32.55;;
26038;SDS011;13815;52.374;4.882;2023-03-11T02:29:28;38.45;;;34.42;;
26038;SDS011;13815;52.374;4.882;2023-03-11T02:31:54;38.83;;;34.72;;
26038;SDS011;13815;52.374;4.882;2023-03-11T02:34:30;38.88;;;34.78;;
26038;SDS011;13815;52.374;4.882;2023-03-11T02:36:58;40.08;;;35.67;;
26038;SDS011;13815;52.374;4.882;2023-03-11T02:39:37;41.35;;;36.95;;
26038;SDS011;13815;52.374;4.882;2023-03-11T02:42:05;41.45;;;37.05;;
26038;SDS011;13815;52.374;4.882;2023-03-11T02:44:32;41.22;;;36.83;;
26038;SDS011;13815;52.374;4.882;2023-03-11T02:46:58;42.05;;;36.85;;
26038;SDS011;13815;52.374;4.882;2023-03-11T02:49:24;40.92;;;36.72;;
26038;SDS011;13815;52.374;4.882;2023-03-11T02:51:49;40.42;;;36.25;;
26038;SDS011;13815;52.374;4.882;2023-03-11T02:54:16;41.90;;;37.22;;
26038;SDS011;13815;52.374;4.882;2023-03-11T02:56:41;41.38;;;37.08;;
26038;SDS011;13815;52.374;4.882;2023-03-11T02:59:06;41.38;;;37.08;;
26038;SDS011;13815;52.374;4.882;2023-03-11T03:01:32;38.50;;;34.50;;
26038;SDS011;13815;52.374;4.882;2023-03-11T03:03:57;40.00;;;35.80;;
26038;SDS011;13815;52.374;4.882;2023-03-11T03:06:23;38.90;;;34.95;;
26038;SDS011;13815;52.374;4.882;2023-03-11T03:08:49;40.03;;;36.00;;
26038;SDS011;13815;52.374;4.882;2023-03-11T03:11:14;40.45;;;35.95;;
26038;SDS011;13815;52.374;4.882;2023-03-11T03:13:39;40.67;;;36.67;;
26038;SDS011;13815;52.374;4.882;2023-03-11T03:16:05;35.47;;;31.88;;
26038;SDS011;13815;52.374;4.882;2023-03-11T03:18:31;35.65;;;32.05;;
26038;SDS011;13815;52.374;4.882;2023-03-11T03:20:57;35.28;;;31.77;;
26038;SDS011;13815;52.374;4.882;2023-03-11T03:23:22;33.70;;;30.40;;
26038;SDS011;13815;52.374;4.882;2023-03-11T03:25:48;33.97;;;30.67;;
26038;SDS011;13815;52.374;4.882;2023-03-11T03:28:13;36.70;;;32.88;;
26038;SDS011;13815;52.374;4.882;2023-03-11T03:30:39;34.85;;;31.42;;
26038;SDS011;13815;52.374;4.882;2023-03-11T03:33:04;33.05;;;29.65;;
26038;SDS011;13815;52.374;4.882;2023-03-11T03:35:31;33.50;;;30.00;;
26038;SDS011;13815;52.374;4.882;2023-03-11T03:37:57;30.30;;;27.30;;
26038;SDS011;13815;52.374;4.882;2023-03-11T03:40:23;32.47;;;29.27;;
26038;SDS011;13815;52.374;4.882;2023-03-11T03:42:48;33.45;;;29.95;;
26038;SDS011;13815;52.374;4.882;2023-03-11T03:45:14;33.15;;;29.85;;
26038;SDS011;13815;52.374;4.882;2023-03-11T03:47:39;34.85;;;31.50;;
26038;SDS011;13815;52.374;4.882;2023-03-11T03:50:05;35.42;;;31.70;;
26038;SDS011;13815;52.374;4.882;2023-03-11T03:52:33;32.72;;;29.63;;
26038;SDS011;13815;52.374;4.882;2023-03-11T03:54:59;33.28;;;30.15;;
26038;SDS011;13815;52.374;4.882;2023-03-11T03:57:25;30.60;;;27.60;;
26038;SDS011;13815;52.374;4.882;2023-03-11T03:59:50;34.67;;;31.38;;
26038;SDS011;13815;52.374;4.882;2023-03-11T04:02:15;29.98;;;27.13;;
26038;SDS011;13815;52.374;4.882;2023-03-11T04:04:41;30.50;;;27.67;;
26038;SDS011;13815;52.374;4.882;2023-03-11T04:07:06;31.60;;;28.65;;
26038;SDS011;13815;52.374;4.882;2023-03-11T04:09:32;31.20;;;28.25;;
26038;SDS011;13815;52.374;4.882;2023-03-11T04:11:58;29.67;;;26.88;;
26038;SDS011;13815;52.374;4.882;2023-03-11T04:14:24;28.23;;;25.40;;
26038;SDS011;13815;52.374;4.882;2023-03-11T04:16:49;26.90;;;24.30;;
26038;SDS011;13815;52.374;4.882;2023-03-11T04:19:15;25.70;;;23.60;;
26038;SDS011;13815;52.374;4.882;2023-03-11T04:21:41;22.58;;;20.77;;
26038;SDS011;13815;52.374;4.882;2023-03-11T04:24:07;22.40;;;20.33;;
26038;SDS011;13815;52.374;4.882;2023-03-11T04:26:33;20.35;;;18.65;;
26038;SDS011;13815;52.374;4.882;2023-03-11T04:28:58;19.08;;;17.77;;
26038;SDS011;13815;52.374;4.882;2023-03-11T04:31:24;19.00;;;17.70;;
26038;SDS011;13815;52.374;4.882;2023-03-11T04:33:49;18.60;;;17.40;;
26038;SDS011;13815;52.374;4.882;2023-03-11T04:36:15;17.85;;;16.75;;
26038;SDS011;13815;52.374;4.882;2023-03-11T04:38:40;16.55;;;15.65;;
26038;SDS011;13815;52.374;4.882;2023-03-11T04:41:05;16.55;;;15.65;;
26038;SDS011;13815;52.374;4.882;2023-03-11T04:43:31;15.68;;;14.98;;
26038;SDS011;13815;52.374;4.882;2023-03-11T04:45:57;15.15;;;14.45;;
26038;SDS011;13815;52.374;4.882;2023-03-11T04:48:22;14.43;;;13.82;;
26038;SDS011;13815;52.374;4.882;2023-03-11T04:50:49;14.07;;;13.48;;
26038;SDS011;13815;52.374;4.882;2023-03-11T04:53:14;14.00;;;13.40;;
26038;SDS011;13815;52.374;4.882;2023-03-11T04:55:40;13.88;;;13.27;;
26038;SDS011;13815;52.374;4.882;2023-03-11T04:58:05;13.32;;;12.60;;
26038;SDS011;13815;52.374;4.882;2023-03-11T05:00:33;13.13;;;12.30;;
26038;SDS011;13815;52.374;4.882;2023-03-11T05:02:59;12.60;;;12.10;;
26038;SDS011;13815;52.374;4.882;2023-03-11T05:05:25;12.85;;;12.00;;
26038;SDS011;13815;52.374;4.882;2023-03-11T05:07:51;11.40;;;11.00;;
26038;SDS011;13815;52.374;4.882;2023-03-11T05:10:16;11.20;;;10.80;;
26038;SDS011;13815;52.374;4.882;2023-03-11T05:12:46;10.23;;;9.82;;
26038;SDS011;13815;52.374;4.882;2023-03-11T05:15:12;9.55;;;9.25;;
26038;SDS011;13815;52.374;4.882;2023-03-11T05:17:38;9.13;;;8.82;;
26038;SDS011;13815;52.374;4.882;2023-03-11T05:20:03;8.90;;;8.60;;
26038;SDS011;13815;52.374;4.882;2023-03-11T05:22:31;8.85;;;8.55;;
26038;SDS011;13815;52.374;4.882;2023-03-11T05:24:57;8.40;;;8.10;;
26038;SDS011;13815;52.374;4.882;2023-03-11T05:27:22;7.30;;;7.10;;
26038;SDS011;13815;52.374;4.882;2023-03-11T05:29:47;7.40;;;6.95;;
26038;SDS011;13815;52.374;4.882;2023-03-11T05:32:13;6.57;;;6.10;;
26038;SDS011;13815;52.374;4.882;2023-03-11T05:34:38;5.80;;;5.70;;
26038;SDS011;13815;52.374;4.882;2023-03-11T05:37:04;5.30;;;5.20;;
26038;SDS011;13815;52.374;4.882;2023-03-11T05:39:29;5.15;;;4.70;;
26038;SDS011;13815;52.374;4.882;2023-03-11T05:41:55;4.10;;;4.00;;
26038;SDS011;13815;52.374;4.882;2023-03-11T05:44:20;3.60;;;3.50;;
26038;SDS011;13815;52.374;4.882;2023-03-11T05:46:46;6.07;;;3.90;;
26038;SDS011;13815;52.374;4.882;2023-03-11T05:49:11;3.20;;;3.10;;
26038;SDS011;13815;52.374;4.882;2023-03-11T05:51:37;2.70;;;2.70;;
26038;SDS011;13815;52.374;4.882;2023-03-11T05:54:02;2.60;;;2.60;;
26038;SDS011;13815;52.374;4.882;2023-03-11T05:56:28;2.50;;;2.30;;
26038;SDS011;13815;52.374;4.882;2023-03-11T05:58:55;2.40;;;2.40;;
26038;SDS011;13815;52.374;4.882;2023-03-11T06:01:21;2.30;;;2.30;;
26038;SDS011;13815;52.374;4.882;2023-03-11T06:03:46;2.10;;;2.10;;
26038;SDS011;13815;52.374;4.882;2023-03-11T06:06:12;2.95;;;2.40;;
26038;SDS011;13815;52.374;4.882;2023-03-11T06:08:38;2.00;;;2.00;;
26038;SDS011;13815;52.374;4.882;2023-03-11T06:11:06;2.10;;;2.10;;
26038;SDS011;13815;52.374;4.882;2023-03-11T06:13:33;3.50;;;2.25;;
26038;SDS011;13815;52.374;4.882;2023-03-11T06:15:58;4.68;;;2.50;;
26038;SDS011;13815;52.374;4.882;2023-03-11T06:18:24;2.00;;;2.00;;
26038;SDS011;13815;52.374;4.882;2023-03-11T06:20:50;3.50;;;2.10;;
26038;SDS011;13815;52.374;4.882;2023-03-11T06:23:16;1.88;;;1.88;;
26038;SDS011;13815;52.374;4.882;2023-03-11T06:25:42;1.90;;;1.90;;
26038;SDS011;13815;52.374;4.882;2023-03-11T06:28:07;1.70;;;1.70;;
26038;SDS011;13815;52.374;4.882;2023-03-11T06:30:33;1.42;;;1.42;;
26038;SDS011;13815;52.374;4.882;2023-03-11T06:32:58;5.55;;;1.77;;
26038;SDS011;13815;52.374;4.882;2023-03-11T06:35:24;1.10;;;1.10;;
26038;SDS011;13815;52.374;4.882;2023-03-11T06:37:49;0.90;;;0.90;;
26038;SDS011;13815;52.374;4.882;2023-03-11T06:40:15;2.80;;;1.20;;
26038;SDS011;13815;52.374;4.882;2023-03-11T06:42:41;0.70;;;0.70;;
26038;SDS011;13815;52.374;4.882;2023-03-11T06:45:10;0.80;;;0.80;;
26038;SDS011;13815;52.374;4.882;2023-03-11T06:47:35;2.80;;;1.23;;
26038;SDS011;13815;52.374;4.882;2023-03-11T06:50:01;0.88;;;0.88;;
26038;SDS011;13815;52.374;4.882;2023-03-11T06:52:30;0.80;;;0.80;;
26038;SDS011;13815;52.374;4.882;2023-03-11T06:54:56;3.05;;;1.10;;
26038;SDS011;13815;52.374;4.882;2023-03-11T06:57:24;0.70;;;0.70;;
26038;SDS011;13815;52.374;4.882;2023-03-11T06:59:51;0.70;;;0.70;;
26038;SDS011;13815;52.374;4.882;2023-03-11T07:02:17;3.25;;;1.00;;
26038;SDS011;13815;52.374;4.882;2023-03-11T07:04:46;0.60;;;0.60;;
26038;SDS011;13815;52.374;4.882;2023-03-11T07:07:13;3.50;;;1.00;;
26038;SDS011;13815;52.374;4.882;2023-03-11T07:09:38;0.80;;;0.80;;
26038;SDS011;13815;52.374;4.882;2023-03-11T07:12:04;0.80;;;0.80;;
26038;SDS011;13815;52.374;4.882;2023-03-11T07:14:29;3.40;;;1.25;;
26038;SDS011;13815;52.374;4.882;2023-03-11T07:16:55;1.00;;;1.00;;
26038;SDS011;13815;52.374;4.882;2023-03-11T07:19:20;2.05;;;1.17;;
26038;SDS011;13815;52.374;4.882;2023-03-11T07:21:47;3.45;;;1.30;;
26038;SDS011;13815;52.374;4.882;2023-03-11T07:24:13;1.00;;;1.00;;
26038;SDS011;13815;52.374;4.882;2023-03-11T07:26:38;1.00;;;1.00;;
26038;SDS011;13815;52.374;4.882;2023-03-11T07:29:03;1.10;;;1.10;;
26038;SDS011;13815;52.374;4.882;2023-03-11T07:31:30;2.67;;;1.30;;
26038;SDS011;13815;52.374;4.882;2023-03-11T07:33:57;1.10;;;1.10;;
26038;SDS011;13815;52.374;4.882;2023-03-11T07:36:24;1.20;;;1.20;;
26038;SDS011;13815;52.374;4.882;2023-03-11T07:39:00;1.50;;;1.50;;
26038;SDS011;13815;52.374;4.882;2023-03-11T07:41:28;4.22;;;2.00;;
26038;SDS011;13815;52.374;4.882;2023-03-11T07:43:55;1.60;;;1.60;;
26038;SDS011;13815;52.374;4.882;2023-03-11T07:46:22;4.13;;;2.20;;
26038;SDS011;13815;52.374;4.882;2023-03-11T07:48:48;1.80;;;1.80;;
26038;SDS011;13815;52.374;4.882;2023-03-11T07:51:16;2.10;;;2.10;;
26038;SDS011;13815;52.374;4.882;2023-03-11T07:53:46;3.90;;;2.70;;
26038;SDS011;13815;52.374;4.882;2023-03-11T07:56:13;2.83;;;2.83;;
26038;SDS011;13815;52.374;4.882;2023-03-11T07:58:39;3.83;;;3.50;;
26038;SDS011;13815;52.374;4.882;2023-03-11T08:01:06;3.55;;;3.45;;
26038;SDS011;13815;52.374;4.882;2023-03-11T08:03:36;3.95;;;3.80;;
26038;SDS011;13815;52.374;4.882;2023-03-11T08:06:02;3.70;;;3.60;;
26038;SDS011;13815;52.374;4.882;2023-03-11T08:08:28;3.80;;;3.70;;
26038;SDS011;13815;52.374;4.882;2023-03-11T08:10:53;3.90;;;3.80;;
26038;SDS011;13815;52.374;4.882;2023-03-11T08:13:19;4.40;;;4.30;;
26038;SDS011;13815;52.374;4.882;2023-03-11T08:15:44;4.38;;;4.28;;
26038;SDS011;13815;52.374;4.882;2023-03-11T08:18:10;4.50;;;4.40;;
26038;SDS011;13815;52.374;4.882;2023-03-11T08:20:38;5.07;;;4.60;;
26038;SDS011;13815;52.374;4.882;2023-03-11T08:23:04;4.70;;;4.60;;
26038;SDS011;13815;52.374;4.882;2023-03-11T08:25:29;5.47;;;5.20;;
26038;SDS011;13815;52.374;4.882;2023-03-11T08:27:55;6.13;;;5.70;;
26038;SDS011;13815;52.374;4.882;2023-03-11T08:30:21;6.43;;;6.22;;
26038;SDS011;13815;52.374;4.882;2023-03-11T08:32:46;7.35;;;6.85;;
26038;SDS011;13815;52.374;4.882;2023-03-11T08:35:13;8.30;;;7.90;;
26038;SDS011;13815;52.374;4.882;2023-03-11T08:37:39;9.50;;;9.20;;
26038;SDS011;13815;52.374;4.882;2023-03-11T08:40:06;12.35;;;11.85;;
26038;SDS011;13815;52.374;4.882;2023-03-11T08:42:35;16.48;;;15.38;;
26038;SDS011;13815;52.374;4.882;2023-03-11T08:45:00;20.50;;;18.60;;
26038;SDS011;13815;52.374;4.882;2023-03-11T08:47:26;29.42;;;20.67;;
26038;SDS011;13815;52.374;4.882;2023-03-11T08:49:51;26.67;;;21.70;;
26038;SDS011;13815;52.374;4.882;2023-03-11T08:52:16;29.40;;;22.65;;
26038;SDS011;13815;52.374;4.882;2023-03-11T08:54:43;36.83;;;23.67;;
26038;SDS011;13815;52.374;4.882;2023-03-11T08:57:08;31.23;;;23.15;;
26038;SDS011;13815;52.374;4.882;2023-03-11T08:59:35;35.72;;;24.80;;
26038;SDS011;13815;52.374;4.882;2023-03-11T09:02:00;40.50;;;26.45;;
26038;SDS011;13815;52.374;4.882;2023-03-11T09:04:25;39.65;;;27.10;;
26038;SDS011;13815;52.374;4.882;2023-03-11T09:06:51;38.25;;;25.58;;
26038;SDS011;13815;52.374;4.882;2023-03-11T09:09:16;40.47;;;25.48;;
26038;SDS011;13815;52.374;4.882;2023-03-11T09:11:45;39.35;;;26.50;;
26038;SDS011;13815;52.374;4.882;2023-03-11T09:14:11;42.45;;;26.40;;
26038;SDS011;13815;52.374;4.882;2023-03-11T09:16:36;40.45;;;26.58;;
26038;SDS011;13815;52.374;4.882;2023-03-11T09:19:02;40.83;;;26.23;;
26038;SDS011;13815;52.374;4.882;2023-03-11T09:21:31;44.47;;;26.85;;
26038;SDS011;13815;52.374;4.882;2023-03-11T09:23:56;41.13;;;25.38;;
26038;SDS011;13815;52.374;4.882;2023-03-11T09:26:22;40.88;;;25.17;;
26038;SDS011;13815;52.374;4.882;2023-03-11T09:28:47;43.10;;;26.48;;
26038;SDS011;13815;52.374;4.882;2023-03-11T09:31:14;43.63;;;26.67;;
26038;SDS011;13815;52.374;4.882;2023-03-11T09:33:40;43.22;;;26.30;;
26038;SDS011;13815;52.374;4.882;2023-03-11T09:36:07;48.08;;;27.90;;
26038;SDS011;13815;52.374;4.882;2023-03-11T09:38:34;46.55;;;28.08;;
26038;SDS011;13815;52.374;4.882;2023-03-11T09:41:01;48.67;;;27.58;;
26038;SDS011;13815;52.374;4.882;2023-03-11T09:49:28;50.35;;;31.33;;
26038;SDS011;13815;52.374;4.882;2023-03-11T09:52:13;49.03;;;30.45;;
26038;SDS011;13815;52.374;4.882;2023-03-11T09:54:50;56.38;;;29.70;;
26038;SDS011;13815;52.374;4.882;2023-03-11T09:57:18;49.60;;;30.00;;
26038;SDS011;13815;52.374;4.882;2023-03-11T09:59:46;53.28;;;28.60;;
26038;SDS011;13815;52.374;4.882;2023-03-11T10:02:16;48.85;;;30.23;;
26038;SDS011;13815;52.374;4.882;2023-03-11T10:07:46;47.10;;;27.80;;
26038;SDS011;13815;52.374;4.882;2023-03-11T10:10:17;46.90;;;28.73;;
26038;SDS011;13815;52.374;4.882;2023-03-11T10:15:14;47.13;;;29.25;;
26038;SDS011;13815;52.374;4.882;2023-03-11T10:26:51;50.83;;;30.65;;
26038;SDS011;13815;52.374;4.882;2023-03-11T10:29:25;49.50;;;30.75;;
26038;SDS011;13815;52.374;4.882;2023-03-11T10:31:59;48.80;;;30.85;;
26038;SDS011;13815;52.374;4.882;2023-03-11T10:34:37;48.85;;;31.15;;
26038;SDS011;13815;52.374;4.882;2023-03-11T10:39:35;47.95;;;30.35;;
26038;SDS011;13815;52.374;4.882;2023-03-11T10:42:02;50.63;;;30.10;;
26038;SDS011;13815;52.374;4.882;2023-03-11T10:44:39;50.60;;;31.25;;
26038;SDS011;13815;52.374;4.882;2023-03-11T10:47:06;48.47;;;30.55;;
26038;SDS011;13815;52.374;4.882;2023-03-11T10:49:43;51.78;;;30.90;;
26038;SDS011;13815;52.374;4.882;2023-03-11T10:52:09;47.72;;;29.45;;
26038;SDS011;13815;52.374;4.882;2023-03-11T10:54:36;48.95;;;31.77;;
26038;SDS011;13815;52.374;4.882;2023-03-11T10:57:23;50.35;;;30.95;;
26038;SDS011;13815;52.374;4.882;2023-03-11T10:59:51;56.92;;;32.65;;
26038;SDS011;13815;52.374;4.882;2023-03-11T11:07:41;54.85;;;30.83;;
26038;SDS011;13815;52.374;4.882;2023-03-11T11:12:57;56.58;;;32.25;;
26038;SDS011;13815;52.374;4.882;2023-03-11T11:15:51;56.30;;;32.83;;
26038;SDS011;13815;52.374;4.882;2023-03-11T11:18:44;68.78;;;34.03;;
26038;SDS011;13815;52.374;4.882;2023-03-11T11:21:16;60.50;;;33.83;;
26038;SDS011;13815;52.374;4.882;2023-03-11T11:24:24;54.40;;;30.60;;
26038;SDS011;13815;52.374;4.882;2023-03-11T11:30:01;48.67;;;28.25;;
26038;SDS011;13815;52.374;4.882;2023-03-11T11:32:33;50.55;;;28.63;;
26038;SDS011;13815;52.374;4.882;2023-03-11T11:34:59;66.63;;;30.73;;
26038;SDS011;13815;52.374;4.882;2023-03-11T11:37:27;56.03;;;30.40;;
26038;SDS011;13815;52.374;4.882;2023-03-11T11:40:00;82.15;;;33.70;;
26038;SDS011;13815;52.374;4.882;2023-03-11T11:42:38;70.03;;;33.45;;
26038;SDS011;13815;52.374;4.882;2023-03-11T11:47:40;87.88;;;35.70;;
26038;SDS011;13815;52.374;4.882;2023-03-11T11:50:25;93.38;;;35.72;;
26038;SDS011;13815;52.374;4.882;2023-03-11T11:55:35;74.47;;;34.53;;
26038;SDS011;13815;52.374;4.882;2023-03-11T11:58:09;63.17;;;35.05;;
26038;SDS011;13815;52.374;4.882;2023-03-11T12:00:39;78.32;;;36.22;;
26038;SDS011;13815;52.374;4.882;2023-03-11T12:05:56;78.63;;;35.00;;
26038;SDS011;13815;52.374;4.882;2023-03-11T12:11:05;72.20;;;36.50;;
26038;SDS011;13815;52.374;4.882;2023-03-11T12:27:24;89.28;;;35.97;;
26038;SDS011;13815;52.374;4.882;2023-03-11T12:30:15;79.82;;;34.85;;
26038;SDS011;13815;52.374;4.882;2023-03-11T12:33:04;88.95;;;38.00;;
26038;SDS011;13815;52.374;4.882;2023-03-11T12:35:33;83.97;;;35.42;;
26038;SDS011;13815;52.374;4.882;2023-03-11T12:46:11;87.70;;;35.38;;
26038;SDS011;13815;52.374;4.882;2023-03-11T12:51:42;74.38;;;36.83;;
26038;SDS011;13815;52.374;4.882;2023-03-11T12:54:37;69.68;;;36.08;;
26038;SDS011;13815;52.374;4.882;2023-03-11T13:08:16;66.95;;;35.88;;
26038;SDS011;13815;52.374;4.882;2023-03-11T13:10:44;59.35;;;35.70;;
26038;SDS011;13815;52.374;4.882;2023-03-11T13:18:36;62.47;;;33.92;;
26038;SDS011;13815;52.374;4.882;2023-03-11T13:21:02;57.67;;;35.13;;
26038;SDS011;13815;52.374;4.882;2023-03-11T13:23:32;56.55;;;34.30;;
26038;SDS011;13815;52.374;4.882;2023-03-11T13:29:08;75.72;;;35.83;;
26038;SDS011;13815;52.374;4.882;2023-03-11T13:34:42;54.67;;;33.65;;
26038;SDS011;13815;52.374;4.882;2023-03-11T13:42:50;54.83;;;34.47;;
26038;SDS011;13815;52.374;4.882;2023-03-11T13:45:26;63.40;;;34.38;;
26038;SDS011;13815;52.374;4.882;2023-03-11T13:47:57;78.65;;;35.72;;
26038;SDS011;13815;52.374;4.882;2023-03-11T13:50:27;53.58;;;32.90;;
26038;SDS011;13815;52.374;4.882;2023-03-11T13:52:55;59.78;;;35.42;;
26038;SDS011;13815;52.374;4.882;2023-03-11T13:58:00;60.33;;;34.85;;
26038;SDS011;13815;52.374;4.882;2023-03-11T14:00:38;54.40;;;34.78;;
26038;SDS011;13815;52.374;4.882;2023-03-11T14:03:12;55.72;;;36.38;;
26038;SDS011;13815;52.374;4.882;2023-03-11T14:05:39;56.85;;;36.70;;
26038;SDS011;13815;52.374;4.882;2023-03-11T14:10:56;55.55;;;34.70;;
26038;SDS011;13815;52.374;4.882;2023-03-11T14:13:24;57.20;;;34.90;;
26038;SDS011;13815;52.374;4.882;2023-03-11T14:18:31;56.25;;;35.78;;
26038;SDS011;13815;52.374;4.882;2023-03-11T14:20:57;54.13;;;35.22;;
26038;SDS011;13815;52.374;4.882;2023-03-11T14:23:25;52.60;;;33.58;;
26038;SDS011;13815;52.374;4.882;2023-03-11T14:25:57;56.47;;;34.38;;
26038;SDS011;13815;52.374;4.882;2023-03-11T14:28:31;52.20;;;33.47;;
26038;SDS011;13815;52.374;4.882;2023-03-11T14:30:59;51.35;;;32.60;;
26038;SDS011;13815;52.374;4.882;2023-03-11T14:33:25;49.35;;;30.63;;
26038;SDS011;13815;52.374;4.882;2023-03-11T14:35:52;56.53;;;34.38;;
26038;SDS011;13815;52.374;4.882;2023-03-11T14:38:19;53.58;;;33.15;;
26038;SDS011;13815;52.374;4.882;2023-03-11T14:40:48;49.10;;;30.42;;
26038;SDS011;13815;52.374;4.882;2023-03-11T14:43:14;54.65;;;32.53;;
26038;SDS011;13815;52.374;4.882;2023-03-11T14:45:40;52.97;;;32.40;;
26038;SDS011;13815;52.374;4.882;2023-03-11T14:48:12;51.00;;;33.15;;
26038;SDS011;13815;52.374;4.882;2023-03-11T14:50:40;51.83;;;33.22;;
26038;SDS011;13815;52.374;4.882;2023-03-11T14:55:40;54.63;;;34.47;;
26038;SDS011;13815;52.374;4.882;2023-03-11T15:00:38;49.58;;;31.23;;
26038;SDS011;13815;52.374;4.882;2023-03-11T15:08:08;54.70;;;34.42;;
26038;SDS011;13815;52.374;4.882;2023-03-11T15:10:34;54.13;;;33.75;;
26038;SDS011;13815;52.374;4.882;2023-03-11T15:13:04;50.67;;;32.05;;
26038;SDS011;13815;52.374;4.882;2023-03-11T15:15:32;52.58;;;33.63;;
26038;SDS011;13815;52.374;4.882;2023-03-11T15:17:58;51.38;;;32.90;;
26038;SDS011;13815;52.374;4.882;2023-03-11T15:20:27;54.25;;;34.65;;
26038;SDS011;13815;52.374;4.882;2023-03-11T15:22:59;50.45;;;31.67;;
26038;SDS011;13815;52.374;4.882;2023-03-11T15:25:30;52.83;;;36.10;;
26038;SDS011;13815;52.374;4.882;2023-03-11T15:27:57;58.15;;;37.53;;
26038;SDS011;13815;52.374;4.882;2023-03-11T15:30:29;52.22;;;33.03;;
26038;SDS011;13815;52.374;4.882;2023-03-11T15:32:55;54.65;;;32.83;;
26038;SDS011;13815;52.374;4.882;2023-03-11T15:35:23;51.17;;;32.75;;
26038;SDS011;13815;52.374;4.882;2023-03-11T15:38:01;51.20;;;32.17;;
26038;SDS011;13815;52.374;4.882;2023-03-11T15:40:52;50.80;;;32.00;;
26038;SDS011;13815;52.374;4.882;2023-03-11T15:45:50;52.08;;;33.35;;
26038;SDS011;13815;52.374;4.882;2023-03-11T15:48:20;53.58;;;34.88;;
26038;SDS011;13815;52.374;4.882;2023-03-11T15:50:48;56.15;;;36.83;;
26038;SDS011;13815;52.374;4.882;2023-03-11T15:53:15;53.40;;;34.67;;
26038;SDS011;13815;52.374;4.882;2023-03-11T15:55:42;55.95;;;33.13;;
26038;SDS011;13815;52.374;4.882;2023-03-11T15:58:08;53.28;;;31.40;;
26038;SDS011;13815;52.374;4.882;2023-03-11T16:00:36;52.85;;;34.00;;
26038;SDS011;13815;52.374;4.882;2023-03-11T16:03:02;54.17;;;33.90;;
26038;SDS011;13815;52.374;4.882;2023-03-11T16:05:29;51.58;;;31.40;;
26038;SDS011;13815;52.374;4.882;2023-03-11T16:07:55;53.65;;;33.85;;
26038;SDS011;13815;52.374;4.882;2023-03-11T16:10:21;57.85;;;36.40;;
26038;SDS011;13815;52.374;4.882;2023-03-11T16:12:49;59.60;;;36.88;;
26038;SDS011;13815;52.374;4.882;2023-03-11T16:15:28;55.83;;;35.38;;
26038;SDS011;13815;52.374;4.882;2023-03-11T16:17:57;54.78;;;36.22;;
26038;SDS011;13815;52.374;4.882;2023-03-11T16:20:24;54.88;;;35.70;;
26038;SDS011;13815;52.374;4.882;2023-03-11T16:22:54;58.42;;;35.30;;
26038;SDS011;13815;52.374;4.882;2023-03-11T16:25:22;58.17;;;37.58;;
26038;SDS011;13815;52.374;4.882;2023-03-11T16:27:49;59.17;;;37.20;;
26038;SDS011;13815;52.374;4.882;2023-03-11T16:30:16;55.55;;;36.30;;
26038;SDS011;13815;52.374;4.882;2023-03-11T16:32:41;52.72;;;34.40;;
26038;SDS011;13815;52.374;4.882;2023-03-11T16:35:09;60.15;;;39.10;;
26038;SDS011;13815;52.374;4.882;2023-03-11T16:37:38;55.42;;;36.92;;